createdAt,value
2023-07-09T00:01:19.621Z,20.41
2023-07-09T00:03:47.634Z,20.39
2023-07-09T00:06:14.363Z,20.37
2023-07-09T00:08:45.330Z,20.38
2023-07-09T00:11:11.666Z,20.34
2023-07-09T00:13:38.046Z,20.36
2023-07-09T00:16:13.380Z,20.27
2023-07-09T00:18:39.782Z,20.25
2023-07-09T00:21:06.160Z,20.19
2023-07-09T00:23:32.688Z,20.10
2023-07-09T00:25:59.090Z,20.10
2023-07-09T00:28:25.489Z,20.06
2023-07-09T00:30:51.858Z,20.02
2023-07-09T00:33:18.506Z,20.03
2023-07-09T00:35:46.742Z,19.97
2023-07-09T00:38:23.478Z,19.95
2023-07-09T00:41:05.111Z,19.92
2023-07-09T00:43:35.062Z,19.91
2023-07-09T00:46:18.231Z,19.84
2023-07-09T00:48:47.713Z,19.82
2023-07-09T00:51:17.235Z,19.77
2023-07-09T00:53:46.316Z,19.76
2023-07-09T00:56:24.666Z,19.69
2023-07-09T00:58:51.218Z,19.71
2023-07-09T01:01:19.714Z,19.67
2023-07-09T01:03:50.331Z,19.65
2023-07-09T01:06:24.813Z,19.64
2023-07-09T01:08:52.193Z,19.66
2023-07-09T01:11:20.488Z,19.62
2023-07-09T01:13:46.972Z,19.65
2023-07-09T01:16:13.480Z,19.56
2023-07-09T01:18:40.003Z,19.57
2023-07-09T01:21:10.799Z,19.54
2023-07-09T01:23:37.157Z,19.53
2023-07-09T01:26:03.861Z,19.48
2023-07-09T01:28:30.568Z,19.48
2023-07-09T01:30:57.042Z,19.46
2023-07-09T01:33:23.616Z,19.38
2023-07-09T01:35:50.024Z,19.38
2023-07-09T01:38:16.407Z,19.38
2023-07-09T01:40:42.791Z,19.35
2023-07-09T01:43:09.229Z,19.33
2023-07-09T01:45:37.588Z,19.33
2023-07-09T01:48:04.812Z,19.35
2023-07-09T01:50:31.226Z,19.30
2023-07-09T01:52:58.334Z,19.30
2023-07-09T01:55:24.808Z,19.31
2023-07-09T01:57:51.178Z,19.30
2023-07-09T02:00:17.848Z,19.24
2023-07-09T02:02:45.979Z,19.29
2023-07-09T02:05:15.599Z,19.28
2023-07-09T02:07:42.622Z,19.19
2023-07-09T02:10:09.702Z,19.21
2023-07-09T02:12:36.078Z,19.21
2023-07-09T02:15:03.344Z,19.19
2023-07-09T02:17:29.798Z,19.19
2023-07-09T02:19:56.239Z,19.15
2023-07-09T02:22:22.736Z,19.11
2023-07-09T02:24:49.085Z,19.06
2023-07-09T02:27:18.528Z,19.08
2023-07-09T02:29:45.300Z,19.02
2023-07-09T02:32:18.371Z,19.01
2023-07-09T02:34:44.757Z,19.07
2023-07-09T02:37:11.131Z,19.07
2023-07-09T02:39:37.510Z,19.04
2023-07-09T02:42:04.233Z,19.08
2023-07-09T02:44:30.618Z,19.11
2023-07-09T02:46:57.018Z,19.10
2023-07-09T02:49:23.379Z,19.09
2023-07-09T02:51:49.818Z,19.08
2023-07-09T02:54:16.228Z,19.09
2023-07-09T02:56:42.650Z,19.08
2023-07-09T02:59:09.021Z,19.09
2023-07-09T03:01:35.537Z,19.11
2023-07-09T03:04:03.176Z,19.07
2023-07-09T03:06:31.028Z,19.06
2023-07-09T03:08:57.370Z,19.03
2023-07-09T03:11:23.774Z,19.03
2023-07-09T03:13:50.240Z,19.02
2023-07-09T03:16:17.229Z,19.01
2023-07-09T03:18:43.800Z,19.00
2023-07-09T03:21:10.430Z,18.97
2023-07-09T03:23:36.869Z,18.99
2023-07-09T03:26:03.865Z,18.98
2023-07-09T03:28:32.646Z,19.05
2023-07-09T03:30:59.458Z,19.03
2023-07-09T03:33:26.121Z,18.99
2023-07-09T03:35:52.929Z,18.99
2023-07-09T03:38:19.672Z,19.01
2023-07-09T03:40:46.274Z,19.03
2023-07-09T03:43:12.815Z,19.05
2023-07-09T03:45:39.223Z,19.03
2023-07-09T03:48:06.828Z,19.03
2023-07-09T03:50:33.882Z,19.05
2023-07-09T03:53:00.424Z,18.98
2023-07-09T03:55:26.952Z,19.04
2023-07-09T03:57:55.076Z,19.07
2023-07-09T04:00:21.946Z,19.03
2023-07-09T04:02:48.988Z,19.10
2023-07-09T04:05:15.482Z,19.04
2023-07-09T04:07:41.982Z,19.07
2023-07-09T04:10:08.638Z,19.16
2023-07-09T04:12:34.982Z,19.24
2023-07-09T04:15:01.344Z,19.29
2023-07-09T04:17:27.718Z,19.38
2023-07-09T04:19:54.166Z,19.37
2023-07-09T04:22:20.553Z,19.45
2023-07-09T04:24:46.926Z,19.47
2023-07-09T04:27:13.672Z,19.52
2023-07-09T04:29:40.723Z,19.58
2023-07-09T04:32:09.222Z,19.63
2023-07-09T04:34:36.046Z,19.67
2023-07-09T04:37:02.430Z,19.73
2023-07-09T04:39:28.786Z,19.78
2023-07-09T04:41:55.183Z,19.88
2023-07-09T04:44:21.589Z,19.97
2023-07-09T04:46:48.029Z,20.12
2023-07-09T04:49:14.420Z,20.26
2023-07-09T04:51:40.828Z,20.35
2023-07-09T04:54:07.226Z,20.52
2023-07-09T04:56:33.627Z,20.60
2023-07-09T04:59:00.056Z,20.79
2023-07-09T05:01:26.446Z,21.00
2023-07-09T05:03:52.843Z,21.22
2023-07-09T05:06:19.262Z,21.36
2023-07-09T05:08:45.645Z,21.45
2023-07-09T05:11:12.025Z,21.56
2023-07-09T05:13:38.432Z,21.64
2023-07-09T05:16:05.077Z,21.71
2023-07-09T05:18:31.689Z,21.73
2023-07-09T05:20:58.073Z,21.83
2023-07-09T05:23:25.871Z,21.94
2023-07-09T05:26:03.242Z,22.27
2023-07-09T05:28:31.367Z,22.72
2023-07-09T05:30:57.765Z,23.17
2023-07-09T05:33:24.191Z,23.57
2023-07-09T05:35:50.566Z,23.96
2023-07-09T05:38:17.222Z,24.23
2023-07-09T05:40:44.206Z,24.45
2023-07-09T05:43:11.782Z,24.72
2023-07-09T05:45:41.625Z,25.00
2023-07-09T05:48:08.154Z,25.30
2023-07-09T05:50:36.002Z,25.63
2023-07-09T05:53:02.434Z,25.89
2023-07-09T05:55:28.866Z,25.90
2023-07-09T05:57:55.481Z,25.85
2023-07-09T06:00:21.935Z,25.76
2023-07-09T06:02:48.463Z,25.89
2023-07-09T06:05:15.583Z,26.14
2023-07-09T06:07:42.089Z,26.51
2023-07-09T06:10:09.632Z,26.96
2023-07-09T06:12:36.330Z,27.37
2023-07-09T06:15:03.122Z,27.74
2023-07-09T06:17:29.503Z,28.00
2023-07-09T06:19:57.254Z,28.19
2023-07-09T06:22:25.694Z,28.43
2023-07-09T06:24:52.061Z,28.66
2023-07-09T06:27:18.404Z,28.85
2023-07-09T06:29:44.836Z,29.18
2023-07-09T06:32:11.242Z,29.37
2023-07-09T06:34:37.633Z,29.70
2023-07-09T06:37:04.276Z,29.58
2023-07-09T06:39:30.664Z,29.74
2023-07-09T06:41:57.023Z,29.77
2023-07-09T06:44:23.398Z,29.98
2023-07-09T06:46:49.764Z,30.14
2023-07-09T06:49:16.124Z,30.22
2023-07-09T06:51:42.498Z,30.11
2023-07-09T06:54:09.475Z,29.90
2023-07-09T06:56:36.037Z,29.88
2023-07-09T06:59:02.415Z,29.82
2023-07-09T07:01:28.801Z,29.79
2023-07-09T07:03:55.246Z,29.69
2023-07-09T07:06:21.616Z,29.81
2023-07-09T07:08:48.029Z,30.06
2023-07-09T07:11:14.426Z,30.17
2023-07-09T07:13:41.824Z,30.27
2023-07-09T07:16:11.402Z,30.42
2023-07-09T07:18:38.649Z,30.39
2023-07-09T07:21:06.037Z,30.77
2023-07-09T07:23:32.480Z,31.18
2023-07-09T07:25:59.184Z,31.44
2023-07-09T07:28:25.637Z,31.60
2023-07-09T07:31:06.375Z,31.92
2023-07-09T07:33:32.733Z,32.25
2023-07-09T07:38:28.469Z,32.41
2023-07-09T07:40:54.939Z,32.21
2023-07-09T07:43:21.323Z,32.53
2023-07-09T07:45:49.092Z,32.64
2023-07-09T07:48:15.617Z,32.72
2023-07-09T07:50:42.044Z,32.76
2023-07-09T07:53:09.178Z,32.55
2023-07-09T07:55:36.984Z,32.43
2023-07-09T07:58:03.857Z,32.55
2023-07-09T08:00:31.452Z,32.81
2023-07-09T08:02:57.943Z,32.78
2023-07-09T08:05:24.457Z,33.06
2023-07-09T08:07:50.828Z,33.41
2023-07-09T08:10:17.220Z,33.58
2023-07-09T08:12:43.656Z,33.61
2023-07-09T08:15:10.408Z,33.67
2023-07-09T08:17:36.934Z,33.74
2023-07-09T08:20:03.612Z,34.05
2023-07-09T08:22:29.954Z,34.25
2023-07-09T08:24:56.327Z,34.24
2023-07-09T08:27:22.806Z,34.16
2023-07-09T08:29:49.151Z,34.42
2023-07-09T08:32:15.847Z,34.68
2023-07-09T08:35:03.191Z,34.62
2023-07-09T08:37:29.611Z,34.61
2023-07-09T08:39:56.078Z,34.66
2023-07-09T08:42:30.632Z,34.84
2023-07-09T08:45:20.302Z,35.01
2023-07-09T08:47:52.794Z,35.07
2023-07-09T08:50:25.638Z,35.27
2023-07-09T08:52:54.752Z,35.42
2023-07-09T08:55:29.227Z,35.62
2023-07-09T08:58:02.209Z,35.42
2023-07-09T09:00:40.777Z,35.30
2023-07-09T09:03:16.124Z,35.20
2023-07-09T09:05:46.369Z,35.22
2023-07-09T09:08:39.623Z,35.14
2023-07-09T09:11:31.311Z,35.19
2023-07-09T09:14:02.109Z,35.14
2023-07-09T09:16:39.019Z,35.34
2023-07-09T09:19:26.699Z,35.47
2023-07-09T09:22:02.922Z,35.65
2023-07-09T09:24:44.443Z,35.88
2023-07-09T09:27:10.856Z,35.59
2023-07-09T09:29:37.218Z,35.43
2023-07-09T09:32:19.111Z,35.19
2023-07-09T09:34:45.514Z,35.09
2023-07-09T09:37:12.890Z,35.14
2023-07-09T09:39:39.868Z,35.23
2023-07-09T09:42:12.223Z,35.10
2023-07-09T09:44:44.938Z,35.04
2023-07-09T09:47:12.425Z,34.91
2023-07-09T09:49:43.275Z,35.04
2023-07-09T09:52:18.862Z,34.90
2023-07-09T09:54:52.252Z,34.72
2023-07-09T09:57:22.100Z,34.73
2023-07-09T09:59:48.748Z,34.71
2023-07-09T10:02:19.786Z,34.63
2023-07-09T10:04:46.974Z,34.69
2023-07-09T10:07:23.956Z,34.72
2023-07-09T10:09:55.704Z,34.55
2023-07-09T10:12:41.609Z,34.49
2023-07-09T10:15:20.149Z,34.49
2023-07-09T10:18:02.806Z,34.45
2023-07-09T10:21:17.201Z,34.39
2023-07-09T10:23:52.378Z,34.42
2023-07-09T10:26:26.440Z,34.56
2023-07-09T10:29:04.889Z,34.56
2023-07-09T10:31:59.467Z,34.41
2023-07-09T10:34:52.507Z,34.46
2023-07-09T10:37:57.285Z,34.73
2023-07-09T10:40:37.615Z,34.75
2023-07-09T10:43:06.960Z,34.80
2023-07-09T10:45:44.120Z,34.81
2023-07-09T10:48:34.016Z,34.77
2023-07-09T10:51:01.317Z,34.81
2023-07-09T10:53:38.507Z,34.80
2023-07-09T10:56:18.242Z,34.84
2023-07-09T10:59:17.130Z,34.93
2023-07-09T11:01:48.264Z,34.93
2023-07-09T11:04:40.538Z,35.11
2023-07-09T11:07:12.233Z,35.18
2023-07-09T11:09:43.502Z,35.24
2023-07-09T11:12:15.204Z,35.14
2023-07-09T11:14:50.324Z,35.29
2023-07-09T11:17:20.307Z,35.33
2023-07-09T11:19:48.993Z,35.54
2023-07-09T11:22:41.056Z,35.42
2023-07-09T11:25:09.441Z,35.39
2023-07-09T11:27:47.323Z,35.51
2023-07-09T11:30:28.481Z,35.51
2023-07-09T11:33:10.427Z,35.59
2023-07-09T11:35:50.423Z,35.69
2023-07-09T11:38:20.779Z,35.52
2023-07-09T11:40:49.140Z,35.72
2023-07-09T11:43:47.845Z,35.61
2023-07-09T11:46:19.517Z,35.74
2023-07-09T11:48:46.220Z,35.73
2023-07-09T11:51:18.279Z,35.58
2023-07-09T11:53:50.328Z,35.51
2023-07-09T11:56:20.317Z,35.19
2023-07-09T11:58:56.024Z,35.12
2023-07-09T12:01:27.582Z,34.97
2023-07-09T12:03:54.016Z,35.01
2023-07-09T12:06:25.262Z,35.06
2023-07-09T12:08:52.660Z,34.88
2023-07-09T12:11:44.556Z,34.94
2023-07-09T12:14:17.720Z,34.85
2023-07-09T12:16:46.541Z,34.70
2023-07-09T12:19:15.297Z,34.64
2023-07-09T12:21:45.563Z,34.62
2023-07-09T12:24:26.939Z,34.60
2023-07-09T12:26:59.075Z,34.48
2023-07-09T12:29:30.801Z,34.49
2023-07-09T12:31:58.658Z,34.47
2023-07-09T12:34:25.737Z,34.26
2023-07-09T12:36:54.612Z,34.17
2023-07-09T12:39:32.524Z,34.16
2023-07-09T12:42:02.335Z,34.23
2023-07-09T12:44:32.389Z,34.05
2023-07-09T12:46:58.996Z,34.14
2023-07-09T12:49:27.812Z,34.21
2023-07-09T12:51:59.491Z,34.10
2023-07-09T12:54:25.934Z,34.09
2023-07-09T12:56:54.267Z,33.90
2023-07-09T12:59:21.952Z,33.90
2023-07-09T13:02:01.432Z,33.87
2023-07-09T13:04:33.525Z,33.93
2023-07-09T13:06:59.929Z,34.04
2023-07-09T13:09:27.366Z,34.27
2023-07-09T13:11:55.826Z,34.29
2023-07-09T13:14:27.718Z,34.39
2023-07-09T13:17:03.476Z,34.01
2023-07-09T13:19:29.812Z,33.96
2023-07-09T13:21:56.222Z,33.85
2023-07-09T13:24:29.687Z,33.68
2023-07-09T13:26:56.764Z,33.67
2023-07-09T13:29:23.121Z,33.68
2023-07-09T13:31:50.150Z,33.68
2023-07-09T13:34:25.087Z,33.65
2023-07-09T13:36:52.748Z,33.70
2023-07-09T13:39:19.100Z,33.73
2023-07-09T13:41:47.566Z,33.86
2023-07-09T13:44:17.371Z,33.78
2023-07-09T13:46:44.015Z,33.53
2023-07-09T13:49:13.003Z,33.40
2023-07-09T13:51:39.405Z,33.18
2023-07-09T13:54:16.045Z,33.18
2023-07-09T13:56:42.516Z,33.09
2023-07-09T13:59:14.802Z,33.05
2023-07-09T14:01:41.558Z,33.02
2023-07-09T14:04:11.881Z,33.02
2023-07-09T14:06:38.574Z,32.85
2023-07-09T14:09:05.294Z,32.28
2023-07-09T14:11:31.662Z,30.78
2023-07-09T14:13:58.089Z,29.07
2023-07-09T14:16:24.713Z,28.45
2023-07-09T14:18:51.043Z,27.97
2023-07-09T14:21:24.481Z,27.51
2023-07-09T14:23:50.917Z,27.20
2023-07-09T14:26:17.465Z,26.69
2023-07-09T14:28:43.913Z,26.51
2023-07-09T14:31:29.046Z,26.21
2023-07-09T14:34:05.813Z,26.18
2023-07-09T14:36:32.198Z,26.15
2023-07-09T14:38:58.572Z,26.17
2023-07-09T14:41:27.209Z,25.91
2023-07-09T14:43:58.209Z,25.68
2023-07-09T14:46:24.613Z,25.55
2023-07-09T14:48:50.997Z,25.40
2023-07-09T14:51:17.735Z,25.35
2023-07-09T14:53:44.142Z,25.17
2023-07-09T14:56:13.147Z,25.05
2023-07-09T14:58:39.548Z,25.02
2023-07-09T15:01:10.969Z,24.92
2023-07-09T15:03:37.347Z,24.77
2023-07-09T15:06:03.740Z,24.70
2023-07-09T15:08:30.084Z,24.63
2023-07-09T15:10:56.509Z,24.60
2023-07-09T15:13:35.205Z,24.47
2023-07-09T15:16:03.301Z,24.40
2023-07-09T15:18:29.715Z,24.38
2023-07-09T15:20:58.885Z,24.35
2023-07-09T15:23:26.231Z,24.39
2023-07-09T15:25:52.841Z,24.41
2023-07-09T15:28:19.524Z,24.53
2023-07-09T15:30:47.003Z,24.53
2023-07-09T15:33:16.875Z,24.39
2023-07-09T15:35:45.482Z,24.24
2023-07-09T15:38:30.098Z,24.09
2023-07-09T15:40:57.661Z,23.61
2023-07-09T15:43:25.196Z,23.46
2023-07-09T15:45:55.171Z,23.43
2023-07-09T15:48:32.633Z,23.34
2023-07-09T15:50:59.764Z,23.07
2023-07-09T15:53:26.851Z,22.80
2023-07-09T15:55:58.837Z,22.57
2023-07-09T15:58:28.599Z,22.44
2023-07-09T16:00:55.172Z,22.44
2023-07-09T16:03:23.339Z,22.41
2023-07-09T16:05:51.082Z,22.32
2023-07-09T16:08:17.583Z,22.44
2023-07-09T16:10:44.203Z,22.53
2023-07-09T16:13:20.400Z,22.67
2023-07-09T16:15:47.547Z,22.70
2023-07-09T16:18:14.044Z,22.82
2023-07-09T16:20:40.538Z,22.95
2023-07-09T16:23:15.325Z,23.00
2023-07-09T16:25:41.781Z,23.04
2023-07-09T16:28:13.761Z,23.07
2023-07-09T16:30:40.204Z,22.95
2023-07-09T16:33:06.657Z,22.84
2023-07-09T16:35:33.103Z,22.78
2023-07-09T16:38:00.210Z,22.68
2023-07-09T16:40:29.187Z,22.61
2023-07-09T16:42:57.862Z,22.43
2023-07-09T16:45:26.393Z,22.17
2023-07-09T16:47:52.951Z,21.99
2023-07-09T16:50:25.667Z,21.91
2023-07-09T16:52:54.473Z,22.03
2023-07-09T16:55:25.117Z,22.09
2023-07-09T16:57:56.843Z,22.24
2023-07-09T17:00:30.982Z,22.27
2023-07-09T17:02:59.200Z,22.27
2023-07-09T17:05:27.557Z,22.32
2023-07-09T17:07:54.374Z,22.24
2023-07-09T17:10:21.337Z,22.29
2023-07-09T17:12:58.085Z,22.25
2023-07-09T17:15:32.846Z,22.27
2023-07-09T17:18:00.952Z,22.36
2023-07-09T17:20:29.861Z,22.42
2023-07-09T17:25:29.272Z,22.40
2023-07-09T17:27:57.182Z,22.28
2023-07-09T17:30:24.697Z,22.24
2023-07-09T17:32:51.165Z,22.12
2023-07-09T17:35:17.640Z,22.07
2023-07-09T17:37:48.321Z,22.11
2023-07-09T17:40:41.939Z,22.17
2023-07-09T17:43:14.560Z,22.26
2023-07-09T17:45:40.913Z,22.34
2023-07-09T17:48:39.750Z,22.47
2023-07-09T17:51:06.346Z,22.50
2023-07-09T17:53:35.229Z,22.52
2023-07-09T17:56:02.243Z,22.52
2023-07-09T17:58:35.255Z,22.50
2023-07-09T18:01:05.348Z,22.55
2023-07-09T18:03:32.147Z,22.50
2023-07-09T18:05:59.063Z,22.44
2023-07-09T18:08:25.785Z,22.44
2023-07-09T18:10:53.001Z,22.47
2023-07-09T18:13:22.731Z,22.49
2023-07-09T18:15:51.114Z,22.48
2023-07-09T18:18:18.102Z,22.47
2023-07-09T18:20:44.840Z,22.58
2023-07-09T18:23:11.461Z,22.57
2023-07-09T18:25:40.344Z,22.59
2023-07-09T18:28:11.584Z,22.58
2023-07-09T18:30:38.148Z,22.52
2023-07-09T18:33:06.614Z,22.39
2023-07-09T18:35:36.254Z,22.40
2023-07-09T18:38:08.289Z,22.36
2023-07-09T18:40:37.832Z,22.31
2023-07-09T18:43:24.541Z,22.28
2023-07-09T18:45:57.000Z,22.30
2023-07-09T18:48:25.802Z,22.38
2023-07-09T18:50:53.569Z,22.34
2023-07-09T18:53:20.455Z,22.35
2023-07-09T18:55:46.848Z,22.34
2023-07-09T18:58:20.404Z,22.33
2023-07-09T19:00:47.059Z,22.23
2023-07-09T19:03:15.835Z,22.12
2023-07-09T19:05:45.135Z,22.09
2023-07-09T19:08:22.907Z,21.97
2023-07-09T19:10:49.538Z,21.89
2023-07-09T19:13:16.172Z,21.80
2023-07-09T19:15:43.584Z,21.66
2023-07-09T19:18:19.094Z,21.58
2023-07-09T19:20:45.857Z,21.47
2023-07-09T19:23:16.642Z,21.39
2023-07-09T19:25:43.038Z,21.40
2023-07-09T19:28:09.369Z,21.34
2023-07-09T19:30:35.783Z,21.27
2023-07-09T19:33:02.184Z,21.29
2023-07-09T19:35:28.769Z,21.20
2023-07-09T19:37:55.136Z,21.19
2023-07-09T19:40:26.362Z,21.12
2023-07-09T19:42:54.527Z,21.06
2023-07-09T19:45:26.749Z,21.07
2023-07-09T19:47:55.844Z,20.98
2023-07-09T19:50:22.213Z,20.97
2023-07-09T19:52:49.665Z,20.90
2023-07-09T19:55:30.318Z,20.86
2023-07-09T19:57:56.846Z,20.86
2023-07-09T20:00:23.570Z,20.86
2023-07-09T20:02:50.649Z,20.83
2023-07-09T20:05:25.912Z,20.80
2023-07-09T20:08:01.674Z,20.74
2023-07-09T20:10:28.867Z,20.75
2023-07-09T20:12:57.073Z,20.69
2023-07-09T20:15:26.153Z,20.67
2023-07-09T20:17:55.907Z,20.67
2023-07-09T20:20:23.962Z,20.69
2023-07-09T20:22:50.615Z,20.72
2023-07-09T20:25:23.447Z,20.73
2023-07-09T20:27:51.802Z,20.74
2023-07-09T20:30:20.074Z,20.67
2023-07-09T20:32:48.083Z,20.72
2023-07-09T20:35:19.364Z,20.70
2023-07-09T20:37:45.905Z,20.66
2023-07-09T20:40:14.376Z,20.68
2023-07-09T20:42:41.454Z,20.66
2023-07-09T20:45:14.394Z,20.70
2023-07-09T20:47:40.831Z,20.67
2023-07-09T20:50:13.582Z,20.71
2023-07-09T20:52:40.492Z,20.72
2023-07-09T20:55:10.146Z,20.67
2023-07-09T20:57:36.584Z,20.63
2023-07-09T21:00:04.632Z,20.62
2023-07-09T21:02:31.129Z,20.64
2023-07-09T21:04:57.670Z,20.62
2023-07-09T21:07:25.273Z,20.60
2023-07-09T21:09:51.679Z,20.51
2023-07-09T21:12:18.984Z,20.48
2023-07-09T21:14:46.453Z,20.42
2023-07-09T21:17:21.364Z,20.43
2023-07-09T21:19:47.747Z,20.45
2023-07-09T21:22:15.705Z,20.52
2023-07-09T21:24:43.933Z,20.48
2023-07-09T21:27:10.493Z,20.50
2023-07-09T21:29:37.005Z,20.50
2023-07-09T21:32:07.186Z,20.38
2023-07-09T21:34:35.297Z,20.26
2023-07-09T21:37:24.971Z,20.20
2023-07-09T21:39:51.453Z,20.23
2023-07-09T21:42:17.999Z,20.20
2023-07-09T21:44:44.514Z,20.29
2023-07-09T21:47:18.057Z,20.27
2023-07-09T21:49:45.313Z,20.20
2023-07-09T21:52:20.552Z,20.21
2023-07-09T21:55:10.895Z,20.19
2023-07-09T21:57:33.740Z,20.21
2023-07-09T22:00:00.175Z,20.28
2023-07-09T22:02:30.817Z,20.26
2023-07-09T22:04:57.399Z,20.25
2023-07-09T22:07:25.185Z,20.20
2023-07-09T22:09:56.176Z,20.11
2023-07-09T22:12:23.410Z,20.17
2023-07-09T22:14:54.996Z,20.15
2023-07-09T22:17:23.639Z,20.10
2023-07-09T22:19:50.024Z,20.15
2023-07-09T22:22:16.534Z,20.10
2023-07-09T22:24:42.897Z,20.09
2023-07-09T22:27:10.861Z,20.06
2023-07-09T22:29:37.259Z,19.98
2023-07-09T22:32:04.389Z,19.96
2023-07-09T22:34:31.114Z,19.97
2023-07-09T22:36:57.443Z,19.96
2023-07-09T22:39:23.822Z,19.95
2023-07-09T22:41:50.206Z,19.87
2023-07-09T22:44:16.568Z,19.78
2023-07-09T22:46:44.153Z,19.75
2023-07-09T22:49:15.639Z,19.67
2023-07-09T22:51:42.510Z,19.65
2023-07-09T22:54:13.808Z,19.65
2023-07-09T22:56:40.189Z,19.63
2023-07-09T22:59:06.556Z,19.67
2023-07-09T23:01:33.281Z,19.72
2023-07-09T23:03:59.737Z,19.73
2023-07-09T23:06:28.058Z,19.76
2023-07-09T23:08:56.813Z,19.72
2023-07-09T23:11:30.543Z,19.62
2023-07-09T23:13:58.253Z,19.60
2023-07-09T23:16:27.618Z,19.57
2023-07-09T23:18:54.156Z,19.59
2023-07-09T23:21:23.307Z,19.60
2023-07-09T23:23:54.610Z,19.60
2023-07-09T23:26:20.965Z,19.52
2023-07-09T23:28:47.362Z,19.52
2023-07-09T23:31:25.251Z,19.47
2023-07-09T23:33:51.542Z,19.50
2023-07-09T23:36:17.937Z,19.50
2023-07-09T23:38:44.388Z,19.45
2023-07-09T23:41:23.896Z,19.48
2023-07-09T23:43:51.100Z,19.44
2023-07-09T23:46:17.505Z,19.41
2023-07-09T23:48:48.932Z,19.45
2023-07-09T23:51:17.987Z,19.41
2023-07-09T23:53:44.377Z,19.37
2023-07-09T23:56:22.444Z,19.36
2023-07-09T23:58:49.856Z,19.34
